sensor_id;sensor_type;location;lat;lon;timestamp;temperature;humidity
68943;DHT22;60852;52.190;4.422;2023-06-26T00:02:13;23.42;64.79
68943;DHT22;60852;52.190;4.422;2023-06-26T00:04:39;23.30;65.67
68943;DHT22;60852;52.190;4.422;2023-06-26T00:07:05;23.19;66.30
68943;DHT22;60852;52.190;4.422;2023-06-26T00:09:30;23.09;67.22
68943;DHT22;60852;52.190;4.422;2023-06-26T00:11:56;23.02;67.50
68943;DHT22;60852;52.190;4.422;2023-06-26T00:14:21;22.96;67.92
68943;DHT22;60852;52.190;4.422;2023-06-26T00:16:48;22.72;68.67
68943;DHT22;60852;52.190;4.422;2023-06-26T00:19:16;22.60;69.15
68943;DHT22;60852;52.190;4.422;2023-06-26T00:21:41;22.37;69.90
68943;DHT22;60852;52.190;4.422;2023-06-26T00:24:16;22.23;70.41
68943;DHT22;60852;52.190;4.422;2023-06-26T00:26:42;22.16;70.26
68943;DHT22;60852;52.190;4.422;2023-06-26T00:29:08;22.06;70.35
68943;DHT22;60852;52.190;4.422;2023-06-26T00:31:33;22.03;70.30
68943;DHT22;60852;52.190;4.422;2023-06-26T00:34:00;21.95;70.08
68943;DHT22;60852;52.190;4.422;2023-06-26T00:36:26;21.95;70.25
68943;DHT22;60852;52.190;4.422;2023-06-26T00:38:52;21.89;70.35
68943;DHT22;60852;52.190;4.422;2023-06-26T00:41:18;21.79;70.72
68943;DHT22;60852;52.190;4.422;2023-06-26T00:43:44;21.78;70.92
68943;DHT22;60852;52.190;4.422;2023-06-26T00:46:12;21.82;70.73
68943;DHT22;60852;52.190;4.422;2023-06-26T00:48:42;21.73;71.06
68943;DHT22;60852;52.190;4.422;2023-06-26T00:51:08;21.71;71.17
68943;DHT22;60852;52.190;4.422;2023-06-26T00:53:34;21.62;71.45
68943;DHT22;60852;52.190;4.422;2023-06-26T00:56:02;21.58;71.85
68943;DHT22;60852;52.190;4.422;2023-06-26T00:58:28;21.44;72.28
68943;DHT22;60852;52.190;4.422;2023-06-26T01:00:53;21.42;72.60
68943;DHT22;60852;52.190;4.422;2023-06-26T01:03:23;21.41;72.65
68943;DHT22;60852;52.190;4.422;2023-06-26T01:05:52;21.41;72.72
68943;DHT22;60852;52.190;4.422;2023-06-26T01:08:18;21.38;72.99
68943;DHT22;60852;52.190;4.422;2023-06-26T01:10:45;21.38;72.90
68943;DHT22;60852;52.190;4.422;2023-06-26T01:13:12;21.35;73.19
68943;DHT22;60852;52.190;4.422;2023-06-26T01:15:40;21.32;73.45
68943;DHT22;60852;52.190;4.422;2023-06-26T01:18:06;21.42;73.39
68943;DHT22;60852;52.190;4.422;2023-06-26T01:20:36;21.52;72.96
68943;DHT22;60852;52.190;4.422;2023-06-26T01:23:46;21.52;72.85
68943;DHT22;60852;52.190;4.422;2023-06-26T01:26:19;21.63;72.49
68943;DHT22;60852;52.190;4.422;2023-06-26T01:28:46;21.73;72.16
68943;DHT22;60852;52.190;4.422;2023-06-26T01:31:14;21.78;71.82
68943;DHT22;60852;52.190;4.422;2023-06-26T01:33:41;21.72;72.08
68943;DHT22;60852;52.190;4.422;2023-06-26T01:36:07;21.71;72.43
68943;DHT22;60852;52.190;4.422;2023-06-26T01:38:33;21.69;72.70
68943;DHT22;60852;52.190;4.422;2023-06-26T01:41:00;21.73;72.82
68943;DHT22;60852;52.190;4.422;2023-06-26T01:46:16;21.66;72.63
68943;DHT22;60852;52.190;4.422;2023-06-26T01:51:24;21.48;72.70
68943;DHT22;60852;52.190;4.422;2023-06-26T01:53:54;21.48;72.85
68943;DHT22;60852;52.190;4.422;2023-06-26T01:56:23;21.45;72.86
68943;DHT22;60852;52.190;4.422;2023-06-26T01:58:51;21.52;73.08
68943;DHT22;60852;52.190;4.422;2023-06-26T02:01:20;21.52;72.79
68943;DHT22;60852;52.190;4.422;2023-06-26T02:03:47;21.45;73.00
68943;DHT22;60852;52.190;4.422;2023-06-26T02:06:12;21.51;73.04
68943;DHT22;60852;52.190;4.422;2023-06-26T02:08:38;21.51;72.64
68943;DHT22;60852;52.190;4.422;2023-06-26T02:11:03;21.51;72.38
68943;DHT22;60852;52.190;4.422;2023-06-26T02:13:29;21.48;72.38
68943;DHT22;60852;52.190;4.422;2023-06-26T02:15:54;21.49;72.26
68943;DHT22;60852;52.190;4.422;2023-06-26T02:18:20;21.48;72.17
68943;DHT22;60852;52.190;4.422;2023-06-26T02:20:48;21.45;72.42
68943;DHT22;60852;52.190;4.422;2023-06-26T02:23:13;21.44;72.47
68943;DHT22;60852;52.190;4.422;2023-06-26T02:25:39;21.46;72.49
68943;DHT22;60852;52.190;4.422;2023-06-26T02:28:05;21.54;72.13
68943;DHT22;60852;52.190;4.422;2023-06-26T02:30:30;21.58;71.78
68943;DHT22;60852;52.190;4.422;2023-06-26T02:32:56;21.62;71.75
68943;DHT22;60852;52.190;4.422;2023-06-26T02:35:21;21.63;71.54
68943;DHT22;60852;52.190;4.422;2023-06-26T02:37:46;21.56;71.61
68943;DHT22;60852;52.190;4.422;2023-06-26T02:40:12;21.46;71.94
68943;DHT22;60852;52.190;4.422;2023-06-26T02:42:37;21.28;72.46
68943;DHT22;60852;52.190;4.422;2023-06-26T02:45:03;21.24;72.82
68943;DHT22;60852;52.190;4.422;2023-06-26T02:47:29;21.17;73.15
68943;DHT22;60852;52.190;4.422;2023-06-26T02:49:54;21.21;73.16
68943;DHT22;60852;52.190;4.422;2023-06-26T02:52:20;21.27;72.59
68943;DHT22;60852;52.190;4.422;2023-06-26T02:54:45;21.23;72.30
68943;DHT22;60852;52.190;4.422;2023-06-26T02:57:11;21.23;72.40
68943;DHT22;60852;52.190;4.422;2023-06-26T02:59:40;21.18;72.56
68943;DHT22;60852;52.190;4.422;2023-06-26T03:02:05;21.14;72.73
68943;DHT22;60852;52.190;4.422;2023-06-26T03:04:31;21.25;72.59
68943;DHT22;60852;52.190;4.422;2023-06-26T03:06:56;21.32;72.44
68943;DHT22;60852;52.190;4.422;2023-06-26T03:09:22;21.35;72.38
68943;DHT22;60852;52.190;4.422;2023-06-26T03:11:48;21.41;72.30
68943;DHT22;60852;52.190;4.422;2023-06-26T03:14:13;21.44;72.09
68943;DHT22;60852;52.190;4.422;2023-06-26T03:16:39;21.48;72.14
68943;DHT22;60852;52.190;4.422;2023-06-26T03:19:05;21.49;71.96
68943;DHT22;60852;52.190;4.422;2023-06-26T03:21:32;21.44;71.96
68943;DHT22;60852;52.190;4.422;2023-06-26T03:23:58;21.42;71.97
68943;DHT22;60852;52.190;4.422;2023-06-26T03:26:23;21.34;72.02
68943;DHT22;60852;52.190;4.422;2023-06-26T03:28:53;21.31;72.16
68943;DHT22;60852;52.190;4.422;2023-06-26T03:31:19;21.31;72.02
68943;DHT22;60852;52.190;4.422;2023-06-26T03:33:44;21.30;71.94
68943;DHT22;60852;52.190;4.422;2023-06-26T03:36:10;21.28;72.00
68943;DHT22;60852;52.190;4.422;2023-06-26T03:38:35;21.30;71.96
68943;DHT22;60852;52.190;4.422;2023-06-26T03:41:01;21.24;72.13
68943;DHT22;60852;52.190;4.422;2023-06-26T03:43:26;21.31;72.04
68943;DHT22;60852;52.190;4.422;2023-06-26T03:45:52;21.24;71.77
68943;DHT22;60852;52.190;4.422;2023-06-26T03:48:17;21.21;72.13
68943;DHT22;60852;52.190;4.422;2023-06-26T03:50:43;21.20;72.16
68943;DHT22;60852;52.190;4.422;2023-06-26T03:53:09;21.20;71.72
68943;DHT22;60852;52.190;4.422;2023-06-26T03:55:34;21.21;71.92
68943;DHT22;60852;52.190;4.422;2023-06-26T03:58:00;21.20;71.45
68943;DHT22;60852;52.190;4.422;2023-06-26T04:00:25;21.25;71.51
68943;DHT22;60852;52.190;4.422;2023-06-26T04:02:51;21.35;70.71
68943;DHT22;60852;52.190;4.422;2023-06-26T04:05:17;21.41;69.87
68943;DHT22;60852;52.190;4.422;2023-06-26T04:07:42;21.38;69.56
68943;DHT22;60852;52.190;4.422;2023-06-26T04:10:08;21.38;69.27
68943;DHT22;60852;52.190;4.422;2023-06-26T04:12:34;21.35;68.91
68943;DHT22;60852;52.190;4.422;2023-06-26T04:14:59;21.28;68.85
68943;DHT22;60852;52.190;4.422;2023-06-26T04:17:25;21.28;68.89
68943;DHT22;60852;52.190;4.422;2023-06-26T04:19:50;21.24;69.04
68943;DHT22;60852;52.190;4.422;2023-06-26T04:22:16;21.39;69.00
68943;DHT22;60852;52.190;4.422;2023-06-26T04:24:41;21.59;68.41
68943;DHT22;60852;52.190;4.422;2023-06-26T04:27:08;21.79;67.26
68943;DHT22;60852;52.190;4.422;2023-06-26T04:29:34;21.71;67.60
68943;DHT22;60852;52.190;4.422;2023-06-26T04:31:59;21.66;68.04
68943;DHT22;60852;52.190;4.422;2023-06-26T04:34:26;21.71;67.84
68943;DHT22;60852;52.190;4.422;2023-06-26T04:36:51;21.67;68.10
68943;DHT22;60852;52.190;4.422;2023-06-26T04:39:17;21.67;67.88
68943;DHT22;60852;52.190;4.422;2023-06-26T04:41:44;21.72;68.00
68943;DHT22;60852;52.190;4.422;2023-06-26T04:44:09;21.73;67.93
68943;DHT22;60852;52.190;4.422;2023-06-26T04:46:36;21.71;67.69
68943;DHT22;60852;52.190;4.422;2023-06-26T04:49:02;21.75;68.02
68943;DHT22;60852;52.190;4.422;2023-06-26T04:51:28;21.85;67.82
68943;DHT22;60852;52.190;4.422;2023-06-26T04:53:54;21.82;68.51
68943;DHT22;60852;52.190;4.422;2023-06-26T04:56:20;21.72;69.32
68943;DHT22;60852;52.190;4.422;2023-06-26T04:58:45;21.49;69.60
68943;DHT22;60852;52.190;4.422;2023-06-26T05:01:11;21.45;70.23
68943;DHT22;60852;52.190;4.422;2023-06-26T05:03:39;21.61;69.50
68943;DHT22;60852;52.190;4.422;2023-06-26T05:06:04;21.62;69.27
68943;DHT22;60852;52.190;4.422;2023-06-26T05:08:30;21.62;69.20
68943;DHT22;60852;52.190;4.422;2023-06-26T05:10:55;21.89;68.60
68943;DHT22;60852;52.190;4.422;2023-06-26T05:13:25;22.32;67.91
68943;DHT22;60852;52.190;4.422;2023-06-26T05:15:52;22.88;65.23
68943;DHT22;60852;52.190;4.422;2023-06-26T05:18:18;23.61;63.40
68943;DHT22;60852;52.190;4.422;2023-06-26T05:20:44;24.52;60.60
68943;DHT22;60852;52.190;4.422;2023-06-26T05:23:13;25.26;58.78
68943;DHT22;60852;52.190;4.422;2023-06-26T05:25:40;25.65;57.43
68943;DHT22;60852;52.190;4.422;2023-06-26T05:28:05;25.98;56.73
68943;DHT22;60852;52.190;4.422;2023-06-26T05:30:31;25.98;56.27
68943;DHT22;60852;52.190;4.422;2023-06-26T05:33:00;25.74;54.96
68943;DHT22;60852;52.190;4.422;2023-06-26T05:35:28;25.88;54.86
68943;DHT22;60852;52.190;4.422;2023-06-26T05:37:55;26.37;53.29
68943;DHT22;60852;52.190;4.422;2023-06-26T05:40:21;25.42;54.40
68943;DHT22;60852;52.190;4.422;2023-06-26T05:42:47;24.17;56.57
68943;DHT22;60852;52.190;4.422;2023-06-26T05:45:13;23.42;59.73
68943;DHT22;60852;52.190;4.422;2023-06-26T05:47:38;22.75;61.25
68943;DHT22;60852;52.190;4.422;2023-06-26T05:50:05;22.36;62.43
68943;DHT22;60852;52.190;4.422;2023-06-26T05:52:31;22.13;63.16
68943;DHT22;60852;52.190;4.422;2023-06-26T05:54:57;22.14;63.16
68943;DHT22;60852;52.190;4.422;2023-06-26T05:57:29;22.57;61.64
68943;DHT22;60852;52.190;4.422;2023-06-26T05:59:55;22.90;60.08
68943;DHT22;60852;52.190;4.422;2023-06-26T06:02:21;22.72;60.27
68943;DHT22;60852;52.190;4.422;2023-06-26T06:04:47;22.60;59.95
68943;DHT22;60852;52.190;4.422;2023-06-26T06:07:12;22.24;61.83
68943;DHT22;60852;52.190;4.422;2023-06-26T06:09:38;22.07;62.87
68943;DHT22;60852;52.190;4.422;2023-06-26T06:12:05;21.78;62.45
68943;DHT22;60852;52.190;4.422;2023-06-26T06:14:34;21.69;63.24
68943;DHT22;60852;52.190;4.422;2023-06-26T06:17:00;21.97;63.15
68943;DHT22;60852;52.190;4.422;2023-06-26T06:19:26;22.18;61.20
68943;DHT22;60852;52.190;4.422;2023-06-26T06:21:52;22.09;60.58
68943;DHT22;60852;52.190;4.422;2023-06-26T06:24:17;22.57;60.18
68943;DHT22;60852;52.190;4.422;2023-06-26T06:26:43;23.73;55.22
68943;DHT22;60852;52.190;4.422;2023-06-26T06:29:09;24.29;53.86
68943;DHT22;60852;52.190;4.422;2023-06-26T06:31:34;24.14;54.26
68943;DHT22;60852;52.190;4.422;2023-06-26T06:34:00;23.71;54.72
68943;DHT22;60852;52.190;4.422;2023-06-26T06:36:25;23.16;56.02
68943;DHT22;60852;52.190;4.422;2023-06-26T06:38:51;22.78;58.20
68943;DHT22;60852;52.190;4.422;2023-06-26T06:41:16;22.23;59.13
68943;DHT22;60852;52.190;4.422;2023-06-26T06:43:42;22.06;60.21
68943;DHT22;60852;52.190;4.422;2023-06-26T06:46:08;22.12;59.93
68943;DHT22;60852;52.190;4.422;2023-06-26T06:48:34;22.27;59.32
68943;DHT22;60852;52.190;4.422;2023-06-26T06:51:00;22.27;59.09
68943;DHT22;60852;52.190;4.422;2023-06-26T06:53:25;21.96;59.92
68943;DHT22;60852;52.190;4.422;2023-06-26T06:55:51;21.78;61.01
68943;DHT22;60852;52.190;4.422;2023-06-26T06:58:17;21.54;61.30
68943;DHT22;60852;52.190;4.422;2023-06-26T07:00:44;21.46;61.00
68943;DHT22;60852;52.190;4.422;2023-06-26T07:03:10;21.34;61.53
68943;DHT22;60852;52.190;4.422;2023-06-26T07:05:36;21.15;62.27
68943;DHT22;60852;52.190;4.422;2023-06-26T07:08:02;21.00;62.81
68943;DHT22;60852;52.190;4.422;2023-06-26T07:10:29;20.94;63.16
68943;DHT22;60852;52.190;4.422;2023-06-26T07:12:54;20.93;63.13
68943;DHT22;60852;52.190;4.422;2023-06-26T07:15:20;20.87;62.52
68943;DHT22;60852;52.190;4.422;2023-06-26T07:17:45;20.88;62.83
68943;DHT22;60852;52.190;4.422;2023-06-26T07:20:11;20.97;62.51
68943;DHT22;60852;52.190;4.422;2023-06-26T07:22:41;20.87;62.28
68943;DHT22;60852;52.190;4.422;2023-06-26T07:25:07;20.90;62.22
68943;DHT22;60852;52.190;4.422;2023-06-26T07:27:36;20.93;62.55
68943;DHT22;60852;52.190;4.422;2023-06-26T07:30:02;20.96;61.98
68943;DHT22;60852;52.190;4.422;2023-06-26T07:32:28;20.87;62.49
68943;DHT22;60852;52.190;4.422;2023-06-26T07:34:54;20.77;62.98
68943;DHT22;60852;52.190;4.422;2023-06-26T07:37:19;20.66;63.35
68943;DHT22;60852;52.190;4.422;2023-06-26T07:39:45;20.77;63.30
68943;DHT22;60852;52.190;4.422;2023-06-26T07:42:10;20.72;63.33
68943;DHT22;60852;52.190;4.422;2023-06-26T07:44:36;20.73;63.54
68943;DHT22;60852;52.190;4.422;2023-06-26T07:47:02;20.70;63.68
68943;DHT22;60852;52.190;4.422;2023-06-26T07:49:27;20.75;63.25
68943;DHT22;60852;52.190;4.422;2023-06-26T07:51:53;20.80;63.04
68943;DHT22;60852;52.190;4.422;2023-06-26T07:54:18;20.79;63.10
68943;DHT22;60852;52.190;4.422;2023-06-26T07:56:54;20.79;63.15
68943;DHT22;60852;52.190;4.422;2023-06-26T07:59:20;20.87;63.20
68943;DHT22;60852;52.190;4.422;2023-06-26T08:01:47;20.98;62.23
68943;DHT22;60852;52.190;4.422;2023-06-26T08:04:13;20.90;62.20
68943;DHT22;60852;52.190;4.422;2023-06-26T08:06:38;20.83;63.01
68943;DHT22;60852;52.190;4.422;2023-06-26T08:09:06;20.88;62.92
68943;DHT22;60852;52.190;4.422;2023-06-26T08:11:33;20.96;62.70
68943;DHT22;60852;52.190;4.422;2023-06-26T08:13:59;20.87;62.07
68943;DHT22;60852;52.190;4.422;2023-06-26T08:16:25;20.88;62.57
68943;DHT22;60852;52.190;4.422;2023-06-26T08:18:51;20.84;62.21
68943;DHT22;60852;52.190;4.422;2023-06-26T08:21:17;20.75;63.35
68943;DHT22;60852;52.190;4.422;2023-06-26T08:23:42;20.86;63.60
68943;DHT22;60852;52.190;4.422;2023-06-26T08:26:08;20.86;62.43
68943;DHT22;60852;52.190;4.422;2023-06-26T08:28:33;20.83;62.63
68943;DHT22;60852;52.190;4.422;2023-06-26T08:30:59;20.88;62.45
68943;DHT22;60852;52.190;4.422;2023-06-26T08:33:25;20.91;63.18
68943;DHT22;60852;52.190;4.422;2023-06-26T08:35:51;20.88;62.96
68943;DHT22;60852;52.190;4.422;2023-06-26T08:38:17;20.79;63.94
68943;DHT22;60852;52.190;4.422;2023-06-26T08:40:42;20.94;63.79
68943;DHT22;60852;52.190;4.422;2023-06-26T08:43:08;20.93;63.09
68943;DHT22;60852;52.190;4.422;2023-06-26T08:45:34;20.86;63.49
68943;DHT22;60852;52.190;4.422;2023-06-26T08:48:00;20.87;63.81
68943;DHT22;60852;52.190;4.422;2023-06-26T08:50:30;20.81;63.77
68943;DHT22;60852;52.190;4.422;2023-06-26T08:53:09;20.75;63.44
68943;DHT22;60852;52.190;4.422;2023-06-26T08:55:41;20.56;63.77
68943;DHT22;60852;52.190;4.422;2023-06-26T08:58:08;20.40;64.11
68943;DHT22;60852;52.190;4.422;2023-06-26T09:00:34;20.33;64.34
68943;DHT22;60852;52.190;4.422;2023-06-26T09:03:01;20.24;63.60
68943;DHT22;60852;52.190;4.422;2023-06-26T09:05:28;20.22;64.09
68943;DHT22;60852;52.190;4.422;2023-06-26T09:07:53;20.28;64.29
68943;DHT22;60852;52.190;4.422;2023-06-26T09:10:21;20.36;64.40
68943;DHT22;60852;52.190;4.422;2023-06-26T09:12:47;20.53;64.23
68943;DHT22;60852;52.190;4.422;2023-06-26T09:15:19;20.57;62.81
68943;DHT22;60852;52.190;4.422;2023-06-26T09:17:45;20.39;63.59
68943;DHT22;60852;52.190;4.422;2023-06-26T09:20:12;20.39;63.67
68943;DHT22;60852;52.190;4.422;2023-06-26T09:22:42;20.45;63.15
68943;DHT22;60852;52.190;4.422;2023-06-26T09:25:09;20.53;62.93
68943;DHT22;60852;52.190;4.422;2023-06-26T09:27:35;20.65;62.63
68943;DHT22;60852;52.190;4.422;2023-06-26T09:30:05;20.79;62.15
68943;DHT22;60852;52.190;4.422;2023-06-26T09:32:36;20.83;61.66
68943;DHT22;60852;52.190;4.422;2023-06-26T09:35:03;20.77;61.62
68943;DHT22;60852;52.190;4.422;2023-06-26T09:37:29;20.69;61.79
68943;DHT22;60852;52.190;4.422;2023-06-26T09:39:54;20.62;61.64
68943;DHT22;60852;52.190;4.422;2023-06-26T09:42:20;20.73;61.90
68943;DHT22;60852;52.190;4.422;2023-06-26T09:44:47;20.75;61.31
68943;DHT22;60852;52.190;4.422;2023-06-26T09:47:16;20.77;61.34
68943;DHT22;60852;52.190;4.422;2023-06-26T09:49:43;20.94;61.12
68943;DHT22;60852;52.190;4.422;2023-06-26T09:52:09;21.06;60.21
68943;DHT22;60852;52.190;4.422;2023-06-26T09:54:36;21.25;60.67
68943;DHT22;60852;52.190;4.422;2023-06-26T09:57:08;22.00;58.40
68943;DHT22;60852;52.190;4.422;2023-06-26T09:59:35;22.60;55.89
68943;DHT22;60852;52.190;4.422;2023-06-26T10:02:01;22.76;55.39
68943;DHT22;60852;52.190;4.422;2023-06-26T10:04:26;22.78;55.41
68943;DHT22;60852;52.190;4.422;2023-06-26T10:06:56;22.82;55.09
68943;DHT22;60852;52.190;4.422;2023-06-26T10:09:22;23.13;54.50
68943;DHT22;60852;52.190;4.422;2023-06-26T10:12:07;23.33;53.72
68943;DHT22;60852;52.190;4.422;2023-06-26T10:14:41;23.53;53.52
68943;DHT22;60852;52.190;4.422;2023-06-26T10:17:10;23.61;53.38
68943;DHT22;60852;52.190;4.422;2023-06-26T10:19:38;23.84;52.74
68943;DHT22;60852;52.190;4.422;2023-06-26T10:22:05;23.98;51.65
68943;DHT22;60852;52.190;4.422;2023-06-26T10:24:34;23.54;52.78
68943;DHT22;60852;52.190;4.422;2023-06-26T10:27:20;23.27;53.52
68943;DHT22;60852;52.190;4.422;2023-06-26T10:29:51;23.32;54.11
68943;DHT22;60852;52.190;4.422;2023-06-26T10:32:21;23.19;53.45
68943;DHT22;60852;52.190;4.422;2023-06-26T10:34:47;22.88;54.27
68943;DHT22;60852;52.190;4.422;2023-06-26T10:37:13;22.90;54.63
68943;DHT22;60852;52.190;4.422;2023-06-26T10:42:34;23.12;54.07
68943;DHT22;60852;52.190;4.422;2023-06-26T10:45:20;23.63;53.26
68943;DHT22;60852;52.190;4.422;2023-06-26T10:47:48;23.77;52.17
68943;DHT22;60852;52.190;4.422;2023-06-26T10:56:04;24.00;51.80
68943;DHT22;60852;52.190;4.422;2023-06-26T11:01:26;23.59;52.31
68943;DHT22;60852;52.190;4.422;2023-06-26T11:06:23;23.20;53.77
68943;DHT22;60852;52.190;4.422;2023-06-26T11:08:51;23.13;53.89
68943;DHT22;60852;52.190;4.422;2023-06-26T11:11:20;22.85;54.51
68943;DHT22;60852;52.190;4.422;2023-06-26T11:13:47;22.44;55.16
68943;DHT22;60852;52.190;4.422;2023-06-26T11:16:14;22.55;55.45
68943;DHT22;60852;52.190;4.422;2023-06-26T11:18:40;22.51;55.57
68943;DHT22;60852;52.190;4.422;2023-06-26T11:23:35;22.58;55.93
68943;DHT22;60852;52.190;4.422;2023-06-26T11:26:18;22.44;56.11
68943;DHT22;60852;52.190;4.422;2023-06-26T11:28:56;22.50;55.93
68943;DHT22;60852;52.190;4.422;2023-06-26T11:31:28;22.48;56.23
68943;DHT22;60852;52.190;4.422;2023-06-26T11:33:58;22.40;56.26
68943;DHT22;60852;52.190;4.422;2023-06-26T11:36:25;22.44;55.58
68943;DHT22;60852;52.190;4.422;2023-06-26T11:38:58;22.48;55.65
68943;DHT22;60852;52.190;4.422;2023-06-26T11:41:26;22.57;55.81
68943;DHT22;60852;52.190;4.422;2023-06-26T11:43:52;22.62;56.04
68943;DHT22;60852;52.190;4.422;2023-06-26T11:46:20;22.72;56.04
68943;DHT22;60852;52.190;4.422;2023-06-26T11:48:46;22.98;54.41
68943;DHT22;60852;52.190;4.422;2023-06-26T11:51:15;23.03;54.17
68943;DHT22;60852;52.190;4.422;2023-06-26T11:53:42;23.03;54.25
68943;DHT22;60852;52.190;4.422;2023-06-26T11:56:15;23.06;54.33
68943;DHT22;60852;52.190;4.422;2023-06-26T11:58:58;23.09;53.88
68943;DHT22;60852;52.190;4.422;2023-06-26T12:04:02;22.72;55.19
68943;DHT22;60852;52.190;4.422;2023-06-26T12:06:34;22.72;54.96
68943;DHT22;60852;52.190;4.422;2023-06-26T12:09:06;22.54;54.89
68943;DHT22;60852;52.190;4.422;2023-06-26T12:11:34;22.40;56.04
68943;DHT22;60852;52.190;4.422;2023-06-26T12:14:01;22.44;55.30
68943;DHT22;60852;52.190;4.422;2023-06-26T12:16:30;22.60;55.52
68943;DHT22;60852;52.190;4.422;2023-06-26T12:19:00;22.58;55.63
68943;DHT22;60852;52.190;4.422;2023-06-26T12:21:45;22.69;55.40
68943;DHT22;60852;52.190;4.422;2023-06-26T12:24:20;22.72;55.89
68943;DHT22;60852;52.190;4.422;2023-06-26T12:26:50;22.65;55.83
68943;DHT22;60852;52.190;4.422;2023-06-26T12:29:18;22.64;55.56
68943;DHT22;60852;52.190;4.422;2023-06-26T12:31:48;22.45;55.84
68943;DHT22;60852;52.190;4.422;2023-06-26T12:34:17;22.45;57.12
68943;DHT22;60852;52.190;4.422;2023-06-26T12:36:50;22.44;56.40
68943;DHT22;60852;52.190;4.422;2023-06-26T12:39:21;22.62;56.57
68943;DHT22;60852;52.190;4.422;2023-06-26T12:44:17;22.75;56.08
68943;DHT22;60852;52.190;4.422;2023-06-26T12:46:42;22.74;55.17
68943;DHT22;60852;52.190;4.422;2023-06-26T12:49:08;22.81;55.75
68943;DHT22;60852;52.190;4.422;2023-06-26T12:51:33;22.92;55.86
68943;DHT22;60852;52.190;4.422;2023-06-26T12:53:59;22.78;56.03
68943;DHT22;60852;52.190;4.422;2023-06-26T12:56:24;22.75;56.20
68943;DHT22;60852;52.190;4.422;2023-06-26T12:58:50;22.65;56.51
68943;DHT22;60852;52.190;4.422;2023-06-26T13:01:15;22.65;56.75
68943;DHT22;60852;52.190;4.422;2023-06-26T13:03:42;22.71;57.18
68943;DHT22;60852;52.190;4.422;2023-06-26T13:06:07;22.64;57.57
68943;DHT22;60852;52.190;4.422;2023-06-26T13:08:33;22.60;57.82
68943;DHT22;60852;52.190;4.422;2023-06-26T13:10:59;22.64;58.33
68943;DHT22;60852;52.190;4.422;2023-06-26T13:13:25;22.57;57.47
68943;DHT22;60852;52.190;4.422;2023-06-26T13:15:51;22.61;56.73
68943;DHT22;60852;52.190;4.422;2023-06-26T13:18:16;22.67;57.57
68943;DHT22;60852;52.190;4.422;2023-06-26T13:20:42;22.55;57.61
68943;DHT22;60852;52.190;4.422;2023-06-26T13:23:07;22.54;57.51
68943;DHT22;60852;52.190;4.422;2023-06-26T13:25:33;22.62;56.53
68943;DHT22;60852;52.190;4.422;2023-06-26T13:27:59;22.60;57.08
68943;DHT22;60852;52.190;4.422;2023-06-26T13:30:25;22.57;56.78
68943;DHT22;60852;52.190;4.422;2023-06-26T13:32:51;22.30;57.04
68943;DHT22;60852;52.190;4.422;2023-06-26T13:35:16;22.41;57.32
68943;DHT22;60852;52.190;4.422;2023-06-26T13:37:42;22.61;57.58
68943;DHT22;60852;52.190;4.422;2023-06-26T13:40:08;22.64;56.86
68943;DHT22;60852;52.190;4.422;2023-06-26T13:42:35;22.67;56.77
68943;DHT22;60852;52.190;4.422;2023-06-26T13:45:03;22.62;56.29
68943;DHT22;60852;52.190;4.422;2023-06-26T13:47:29;22.65;56.07
68943;DHT22;60852;52.190;4.422;2023-06-26T13:49:54;22.61;56.97
68943;DHT22;60852;52.190;4.422;2023-06-26T13:52:20;22.54;55.88
68943;DHT22;60852;52.190;4.422;2023-06-26T13:54:46;22.60;56.57
68943;DHT22;60852;52.190;4.422;2023-06-26T13:57:11;22.71;56.06
68943;DHT22;60852;52.190;4.422;2023-06-26T13:59:39;22.79;56.65
68943;DHT22;60852;52.190;4.422;2023-06-26T14:02:06;22.71;55.78
68943;DHT22;60852;52.190;4.422;2023-06-26T14:04:32;22.60;56.60
68943;DHT22;60852;52.190;4.422;2023-06-26T14:06:58;22.58;56.75
68943;DHT22;60852;52.190;4.422;2023-06-26T14:09:23;22.60;57.11
68943;DHT22;60852;52.190;4.422;2023-06-26T14:11:49;22.55;56.17
68943;DHT22;60852;52.190;4.422;2023-06-26T14:14:14;22.58;56.49
68943;DHT22;60852;52.190;4.422;2023-06-26T14:16:40;22.58;56.13
68943;DHT22;60852;52.190;4.422;2023-06-26T14:19:06;22.64;56.40
68943;DHT22;60852;52.190;4.422;2023-06-26T14:21:31;22.68;55.71
68943;DHT22;60852;52.190;4.422;2023-06-26T14:23:59;22.76;55.73
68943;DHT22;60852;52.190;4.422;2023-06-26T14:26:24;22.76;55.15
68943;DHT22;60852;52.190;4.422;2023-06-26T14:28:50;22.71;55.52
68943;DHT22;60852;52.190;4.422;2023-06-26T14:31:15;22.68;55.32
68943;DHT22;60852;52.190;4.422;2023-06-26T14:33:41;22.74;56.73
68943;DHT22;60852;52.190;4.422;2023-06-26T14:36:07;22.74;56.93
68943;DHT22;60852;52.190;4.422;2023-06-26T14:38:32;22.64;57.05
68943;DHT22;60852;52.190;4.422;2023-06-26T14:40:58;22.62;56.85
68943;DHT22;60852;52.190;4.422;2023-06-26T14:43:23;22.69;55.50
68943;DHT22;60852;52.190;4.422;2023-06-26T14:45:50;22.74;55.09
68943;DHT22;60852;52.190;4.422;2023-06-26T14:48:15;22.57;55.82
68943;DHT22;60852;52.190;4.422;2023-06-26T14:50:41;22.45;56.85
68943;DHT22;60852;52.190;4.422;2023-06-26T14:53:06;22.39;56.52
68943;DHT22;60852;52.190;4.422;2023-06-26T14:55:32;22.44;56.31
68943;DHT22;60852;52.190;4.422;2023-06-26T14:57:57;22.50;56.06
68943;DHT22;60852;52.190;4.422;2023-06-26T15:00:23;22.53;56.86
68943;DHT22;60852;52.190;4.422;2023-06-26T15:02:49;22.57;56.78
68943;DHT22;60852;52.190;4.422;2023-06-26T15:05:14;22.51;57.51
68943;DHT22;60852;52.190;4.422;2023-06-26T15:07:40;22.60;57.37
68943;DHT22;60852;52.190;4.422;2023-06-26T15:10:06;22.69;56.18
68943;DHT22;60852;52.190;4.422;2023-06-26T15:12:32;22.60;55.08
68943;DHT22;60852;52.190;4.422;2023-06-26T15:14:57;22.37;55.67
68943;DHT22;60852;52.190;4.422;2023-06-26T15:17:23;22.32;56.17
68943;DHT22;60852;52.190;4.422;2023-06-26T15:19:48;22.25;56.67
68943;DHT22;60852;52.190;4.422;2023-06-26T15:22:17;22.20;57.83
68943;DHT22;60852;52.190;4.422;2023-06-26T15:24:43;22.27;57.83
68943;DHT22;60852;52.190;4.422;2023-06-26T15:27:09;22.32;58.07
68943;DHT22;60852;52.190;4.422;2023-06-26T15:29:34;22.29;57.85
68943;DHT22;60852;52.190;4.422;2023-06-26T15:32:00;22.29;56.69
68943;DHT22;60852;52.190;4.422;2023-06-26T15:34:25;22.32;58.14
68943;DHT22;60852;52.190;4.422;2023-06-26T15:36:51;22.24;57.72
68943;DHT22;60852;52.190;4.422;2023-06-26T15:39:16;22.16;58.22
68943;DHT22;60852;52.190;4.422;2023-06-26T15:41:43;22.20;59.06
68943;DHT22;60852;52.190;4.422;2023-06-26T15:44:09;22.32;58.79
68943;DHT22;60852;52.190;4.422;2023-06-26T15:46:35;22.43;57.97
68943;DHT22;60852;52.190;4.422;2023-06-26T15:49:00;22.39;56.70
68943;DHT22;60852;52.190;4.422;2023-06-26T15:51:26;22.39;55.70
68943;DHT22;60852;52.190;4.422;2023-06-26T15:53:51;22.39;57.58
68943;DHT22;60852;52.190;4.422;2023-06-26T15:56:17;22.54;56.90